This is the latest recevied weather packets stored in our database for station/object KJ4TDM. If no packets are shown the sender has not sent any weather packets the latest 10 day(s).
| Time | Temp. | Humidity | Pressure | Rain* | Wind** | Luminosity | Snow |
|---|---|---|---|---|---|---|---|
| 1777769167 | 16.67° C | 51% | 1016.7 hPa | 0 mm | - | - | - |
| 1777764670 | 20.56° C | 35% | 1015.9 hPa | 0 mm | - | - | - |
| 1777763754 | 20.56° C | 34% | 1015.8 hPa | 0 mm | - | - | - |
| 1777762835 | 21.11° C | 34% | 1015.8 hPa | 0 mm | - | - | - |
| 1777761981 | 21.11° C | 34% | 1015.9 hPa | 0 mm | - | - | - |
| 1777760135 | 21.67° C | 32% | 1015.8 hPa | 0 mm | - | - | - |
| 1777758347 | 21.67° C | 34% | 1015.8 hPa | 0 mm | - | - | - |
| 1777749372 | 21.11° C | 32% | 1016.1 hPa | 0 mm | - | - | - |
| 1777740362 | 18.89° C | 40% | 1017.2 hPa | 0 mm | - | - | - |
| 1777735836 | 15.56° C | 56% | 1017.2 hPa | 0 mm | - | - | - |
| 1777728618 | 12.78° C | 66% | 1015.9 hPa | 0 mm | - | - | - |
| 1777727766 | 12.22° C | 67% | 1015.8 hPa | 0 mm | - | - | - |
| 1777726813 | 12.22° C | 68% | 1015.6 hPa | 0 mm | - | - | - |
| 1777725975 | 12.22° C | 67% | 1015.6 hPa | 0 mm | - | - | - |
| 1777724179 | 11.67° C | 69% | 1015.5 hPa | 0 mm | - | - | - |
| 1777721458 | 11.67° C | 68% | 1015.3 hPa | 0 mm | - | - | - |
| 1777714271 | 12.78° C | 64% | 1014.4 hPa | 0 mm | - | - | - |
| 1777713347 | 12.78° C | 64% | 1014.5 hPa | 0 mm | - | - | - |
| 1777711551 | 12.78° C | 63% | 1014.7 hPa | 0 mm | - | - | - |
| 1777707973 | 13.33° C | 62% | 1014.3 hPa | 0 mm | - | - | - |
| 1777707055 | 13.89° C | 62% | 1014.5 hPa | 0 mm | - | - | - |
| 1777706174 | 13.89° C | 62% | 1014.8 hPa | 0 mm | - | - | - |
| 1777675546 | 17.78° C | 70% | 1013.9 hPa | 0 mm | - | - | - |
| 1777670149 | 18.89° C | 57% | 1013.2 hPa | 0 mm | - | - | - |
| 1777669210 | 18.89° C | 57% | 1013.5 hPa | 0 mm | - | - | - |
* Rain latest hour (hover to see other rain measurements)
** Current wind speed in m/s (hover to see current wind gust speed)